createdAt,value
2022-10-10T00:01:09.540Z,6.65
2022-10-10T00:03:36.254Z,5.13
2022-10-10T00:06:03.350Z,5.75
2022-10-10T00:08:29.925Z,5.93
2022-10-10T00:10:56.501Z,6.32
2022-10-10T00:13:23.161Z,6.22
2022-10-10T00:15:49.749Z,5.43
2022-10-10T00:18:16.980Z,6.03
2022-10-10T00:20:43.640Z,6.47
2022-10-10T00:23:10.251Z,6.28
2022-10-10T00:25:37.585Z,5.70
2022-10-10T00:28:04.890Z,5.15
2022-10-10T00:30:31.648Z,5.22
2022-10-10T00:32:59.415Z,5.43
2022-10-10T00:35:26.242Z,6.43
2022-10-10T00:37:52.897Z,5.65
2022-10-10T00:40:19.928Z,6.05
2022-10-10T00:42:46.586Z,5.28
2022-10-10T00:45:30.983Z,4.82
2022-10-10T00:48:10.772Z,6.57
2022-10-10T00:50:46.249Z,5.38
2022-10-10T00:53:15.876Z,5.75
2022-10-10T00:55:43.551Z,5.78
2022-10-10T00:58:10.907Z,4.95
2022-10-10T01:00:37.552Z,4.82
2022-10-10T01:03:04.254Z,5.65
2022-10-10T01:05:32.071Z,5.38
2022-10-10T01:07:59.316Z,5.15
2022-10-10T01:10:26.117Z,5.63
2022-10-10T01:12:52.994Z,5.47
2022-10-10T01:15:19.689Z,5.32
2022-10-10T01:17:57.972Z,4.60
2022-10-10T01:20:39.643Z,4.38
2022-10-10T01:26:06.436Z,5.70
2022-10-10T01:28:45.244Z,6.25
2022-10-10T01:31:16.245Z,5.60
2022-10-10T01:34:01.241Z,5.15
2022-10-10T01:36:39.057Z,6.15
2022-10-10T01:39:21.223Z,4.90
2022-10-10T01:41:56.293Z,6.65
2022-10-10T01:44:22.877Z,5.50
2022-10-10T01:46:49.417Z,5.70
2022-10-10T01:49:16.514Z,5.53
2022-10-10T01:52:19.717Z,4.85
2022-10-10T01:55:01.671Z,5.53
2022-10-10T01:57:40.787Z,5.88
2022-10-10T02:00:11.695Z,5.68
2022-10-10T02:03:02.252Z,5.10
2022-10-10T02:05:56.704Z,5.28
2022-10-10T02:08:32.831Z,5.32
2022-10-10T02:11:05.264Z,5.07
2022-10-10T02:13:38.066Z,5.93
2022-10-10T02:16:10.130Z,6.25
2022-10-10T02:18:37.208Z,5.82
2022-10-10T02:21:06.644Z,5.47
2022-10-10T02:23:34.796Z,5.80
2022-10-10T02:26:02.642Z,5.18
2022-10-10T02:28:46.197Z,5.95
2022-10-10T02:31:19.393Z,5.22
2022-10-10T02:33:53.355Z,5.03
2022-10-10T02:36:21.664Z,5.60
2022-10-10T02:38:49.308Z,6.45
2022-10-10T02:41:19.452Z,5.93
2022-10-10T02:43:46.842Z,6.20
2022-10-10T02:46:14.675Z,6.45
2022-10-10T02:48:41.555Z,7.05
2022-10-10T02:51:09.212Z,4.93
2022-10-10T02:53:37.673Z,6.63
2022-10-10T02:56:04.968Z,8.23
2022-10-10T02:58:31.567Z,6.38
2022-10-10T03:00:58.637Z,5.50
2022-10-10T03:03:25.806Z,6.70
2022-10-10T03:05:52.687Z,4.97
2022-10-10T03:08:19.342Z,5.13
2022-10-10T03:11:00.257Z,7.57
2022-10-10T03:13:27.086Z,7.23
2022-10-10T03:15:54.050Z,4.95
2022-10-10T03:18:21.184Z,5.43
2022-10-10T03:20:52.488Z,5.63
2022-10-10T03:23:19.411Z,5.38
2022-10-10T03:25:46.217Z,4.85
2022-10-10T03:28:13.474Z,5.07
2022-10-10T03:30:40.319Z,4.80
2022-10-10T03:33:07.641Z,5.07
2022-10-10T03:35:34.459Z,6.50
2022-10-10T03:38:01.353Z,4.43
2022-10-10T03:40:28.941Z,4.18
2022-10-10T03:42:55.542Z,7.00
2022-10-10T03:45:22.120Z,4.75
2022-10-10T03:47:51.469Z,7.28
2022-10-10T03:50:18.292Z,3.95
2022-10-10T03:52:44.820Z,4.20
2022-10-10T03:55:11.494Z,5.28
2022-10-10T03:57:38.135Z,5.47
2022-10-10T04:00:05.165Z,4.30
2022-10-10T04:02:31.666Z,6.00
2022-10-10T04:04:58.282Z,4.57
2022-10-10T04:07:24.948Z,4.78
2022-10-10T04:09:51.495Z,3.80
2022-10-10T04:12:18.067Z,4.63
2022-10-10T04:14:44.609Z,3.40
2022-10-10T04:17:11.201Z,3.58
2022-10-10T04:19:37.782Z,4.30
2022-10-10T04:22:08.914Z,4.75
2022-10-10T04:24:37.541Z,3.78
2022-10-10T04:27:04.272Z,3.25
2022-10-10T04:29:30.886Z,3.60
2022-10-10T04:31:57.470Z,3.45
2022-10-10T04:34:24.087Z,3.45
2022-10-10T04:36:50.663Z,2.90
2022-10-10T04:39:17.308Z,3.00
2022-10-10T04:41:43.915Z,4.38
2022-10-10T04:44:10.463Z,3.78
2022-10-10T04:46:37.001Z,3.47
2022-10-10T04:49:03.575Z,3.10
2022-10-10T04:51:30.227Z,3.17
2022-10-10T04:53:56.783Z,2.55
2022-10-10T04:56:25.308Z,2.35
2022-10-10T04:58:51.878Z,2.60
2022-10-10T05:01:18.572Z,2.60
2022-10-10T05:03:45.166Z,2.20
2022-10-10T05:06:11.801Z,2.33
2022-10-10T05:08:38.343Z,2.22
2022-10-10T05:11:05.013Z,2.42
2022-10-10T05:13:31.549Z,2.05
2022-10-10T05:15:58.926Z,1.83
2022-10-10T05:18:25.572Z,2.33
2022-10-10T05:20:52.165Z,1.77
2022-10-10T05:23:18.713Z,2.90
2022-10-10T05:25:49.577Z,2.40
2022-10-10T05:28:17.249Z,2.15
2022-10-10T05:30:43.895Z,2.30
2022-10-10T05:33:10.460Z,1.90
2022-10-10T05:35:37.095Z,2.00
2022-10-10T05:38:03.831Z,2.20
2022-10-10T05:40:30.348Z,2.58
2022-10-10T05:42:56.976Z,2.20
2022-10-10T05:45:23.641Z,2.75
2022-10-10T05:47:50.203Z,2.53
2022-10-10T05:50:39.106Z,2.55
2022-10-10T05:53:06.897Z,2.28
2022-10-10T05:55:33.885Z,2.67
2022-10-10T05:58:00.431Z,2.40
2022-10-10T06:00:27.089Z,1.92
2022-10-10T06:02:54.424Z,2.53
2022-10-10T06:05:21.218Z,2.10
2022-10-10T06:08:04.688Z,1.60
2022-10-10T06:10:35.875Z,1.60
2022-10-10T06:13:02.447Z,1.92
2022-10-10T06:15:29.017Z,2.40
2022-10-10T06:17:55.585Z,1.77
2022-10-10T06:20:22.239Z,1.98
2022-10-10T06:22:49.205Z,1.83
2022-10-10T06:25:38.466Z,1.80
2022-10-10T06:28:02.937Z,1.92
2022-10-10T06:30:29.682Z,1.80
2022-10-10T06:32:57.685Z,1.73
2022-10-10T06:35:24.561Z,1.80
2022-10-10T06:37:51.229Z,1.70
2022-10-10T06:40:17.882Z,2.05
2022-10-10T06:42:44.475Z,1.80
2022-10-10T06:45:11.114Z,1.63
2022-10-10T06:47:37.710Z,1.83
2022-10-10T06:50:07.218Z,1.55
2022-10-10T06:52:33.893Z,1.85
2022-10-10T06:55:00.449Z,1.50
2022-10-10T06:57:27.967Z,1.70
2022-10-10T06:59:54.568Z,1.85
2022-10-10T07:02:21.177Z,1.23
2022-10-10T07:04:47.740Z,1.55
2022-10-10T07:07:14.410Z,1.33
2022-10-10T07:09:41.012Z,1.73
2022-10-10T07:12:07.698Z,1.40
2022-10-10T07:14:34.220Z,1.85
2022-10-10T07:17:00.839Z,1.65
2022-10-10T07:19:27.989Z,1.77
2022-10-10T07:21:54.520Z,1.27
2022-10-10T07:24:21.172Z,1.00
2022-10-10T07:26:47.758Z,1.67
2022-10-10T07:29:14.431Z,1.40
2022-10-10T07:31:40.948Z,1.30
2022-10-10T07:34:07.528Z,1.40
2022-10-10T07:36:34.221Z,1.30
2022-10-10T07:39:00.847Z,1.33
2022-10-10T07:41:27.386Z,1.30
2022-10-10T07:43:55.876Z,1.23
2022-10-10T07:46:22.940Z,1.13
2022-10-10T07:48:49.501Z,1.00
2022-10-10T07:51:16.625Z,0.98
2022-10-10T07:53:44.290Z,0.95
2022-10-10T07:56:11.398Z,1.10
2022-10-10T07:58:38.066Z,1.65
2022-10-10T08:01:12.044Z,1.35
2022-10-10T08:03:39.343Z,0.95
2022-10-10T08:06:08.084Z,1.38
2022-10-10T08:08:44.859Z,0.60
2022-10-10T08:11:18.266Z,1.23
2022-10-10T08:13:45.110Z,0.85
2022-10-10T08:16:11.695Z,1.20
2022-10-10T08:18:38.380Z,1.73
2022-10-10T08:21:10.454Z,2.58
2022-10-10T08:23:40.022Z,1.42
2022-10-10T08:26:10.673Z,1.20
2022-10-10T08:28:38.392Z,0.80
2022-10-10T08:31:06.843Z,1.23
2022-10-10T08:33:33.647Z,1.02
2022-10-10T08:36:15.439Z,1.00
2022-10-10T08:38:42.629Z,1.60
2022-10-10T08:41:24.791Z,1.20
2022-10-10T08:44:35.904Z,0.80
2022-10-10T08:47:36.482Z,1.13
2022-10-10T08:50:20.205Z,1.10
2022-10-10T08:52:48.761Z,1.17
2022-10-10T08:55:18.195Z,0.95
2022-10-10T08:57:51.627Z,1.08
2022-10-10T09:00:22.188Z,1.10
2022-10-10T09:02:57.305Z,0.90
2022-10-10T09:05:42.343Z,0.73
2022-10-10T09:08:27.690Z,0.90
2022-10-10T09:10:58.173Z,0.60
2022-10-10T09:13:39.735Z,0.90
2022-10-10T09:16:13.657Z,1.17
2022-10-10T09:18:59.665Z,0.73
2022-10-10T09:21:32.875Z,0.85
2022-10-10T09:24:20.577Z,0.80
2022-10-10T09:26:55.741Z,0.75
2022-10-10T09:29:42.432Z,0.65
2022-10-10T09:32:21.229Z,0.70
2022-10-10T09:34:59.931Z,0.88
2022-10-10T09:37:46.885Z,0.90
2022-10-10T09:40:26.523Z,0.73
2022-10-10T09:42:53.581Z,1.00
2022-10-10T09:45:28.459Z,0.77
2022-10-10T09:47:55.671Z,1.00
2022-10-10T09:50:23.239Z,0.90
2022-10-10T09:52:51.641Z,0.75
2022-10-10T09:55:30.460Z,1.02
2022-10-10T09:58:10.859Z,0.82
2022-10-10T10:00:37.753Z,0.93
2022-10-10T10:03:20.921Z,0.80
2022-10-10T10:06:01.649Z,0.93
2022-10-10T10:08:33.330Z,0.75
2022-10-10T10:11:01.308Z,0.90
2022-10-10T10:13:35.910Z,0.70
2022-10-10T10:16:12.906Z,1.30
2022-10-10T10:18:44.756Z,0.70
2022-10-10T10:21:24.263Z,0.95
2022-10-10T10:24:10.088Z,0.80
2022-10-10T10:26:41.836Z,0.75
2022-10-10T10:29:28.964Z,0.60
2022-10-10T10:32:08.865Z,0.70
2022-10-10T10:34:35.412Z,0.60
2022-10-10T10:37:14.729Z,0.50
2022-10-10T10:40:03.222Z,0.98
2022-10-10T10:42:39.186Z,1.17
2022-10-10T10:45:37.227Z,0.75
2022-10-10T10:48:12.621Z,0.82
2022-10-10T10:51:14.686Z,0.80
2022-10-10T10:53:49.763Z,0.70
2022-10-10T10:56:25.680Z,0.70
2022-10-10T11:02:00.890Z,0.93
2022-10-10T11:05:24.797Z,0.82
2022-10-10T11:08:20.645Z,0.70
2022-10-10T11:11:31.866Z,0.90
2022-10-10T11:14:36.777Z,0.77
2022-10-10T11:17:20.463Z,0.55
2022-10-10T11:19:56.523Z,0.70
2022-10-10T11:22:31.913Z,0.80
2022-10-10T11:25:07.571Z,0.63
2022-10-10T11:27:40.493Z,0.65
2022-10-10T11:30:21.932Z,1.00
2022-10-10T11:33:11.265Z,0.73
2022-10-10T11:35:55.609Z,0.88
2022-10-10T11:38:34.993Z,1.20
2022-10-10T11:41:15.742Z,0.50
2022-10-10T11:43:50.873Z,0.88
2022-10-10T11:46:33.405Z,0.80
2022-10-10T11:49:11.737Z,1.20
2022-10-10T11:51:42.904Z,0.63
2022-10-10T11:54:25.547Z,1.13
2022-10-10T11:56:57.485Z,0.63
2022-10-10T11:59:38.560Z,0.90
2022-10-10T12:02:24.413Z,0.70
2022-10-10T12:04:54.064Z,0.45
2022-10-10T12:07:38.403Z,0.57
2022-10-10T12:10:18.699Z,0.90
2022-10-10T12:12:49.262Z,0.98
2022-10-10T12:15:38.643Z,0.70
2022-10-10T12:18:24.193Z,0.43
2022-10-10T12:21:04.851Z,0.70
2022-10-10T12:23:32.517Z,0.45
2022-10-10T12:25:59.446Z,0.65
2022-10-10T12:28:28.991Z,0.77
2022-10-10T12:30:58.268Z,0.70
2022-10-10T12:33:33.784Z,0.65
2022-10-10T12:36:21.663Z,0.40
2022-10-10T12:39:03.334Z,0.73
2022-10-10T12:41:46.956Z,1.33
2022-10-10T12:44:19.978Z,0.75
2022-10-10T12:46:49.819Z,0.68
2022-10-10T12:49:23.947Z,0.47
2022-10-10T12:52:18.139Z,0.60
2022-10-10T12:54:45.958Z,0.70
2022-10-10T12:57:18.749Z,0.85
2022-10-10T12:59:46.240Z,0.50
2022-10-10T13:02:20.357Z,0.52
2022-10-10T13:04:48.254Z,0.50
2022-10-10T13:07:19.158Z,0.80
2022-10-10T13:12:32.285Z,0.70
2022-10-10T13:14:58.901Z,0.40
2022-10-10T13:17:25.479Z,1.20
2022-10-10T13:19:55.474Z,0.45
2022-10-10T13:22:23.250Z,0.50
2022-10-10T13:24:51.130Z,0.70
2022-10-10T13:27:24.754Z,0.60
2022-10-10T13:29:53.275Z,0.50
2022-10-10T13:32:26.472Z,0.68
2022-10-10T13:35:02.188Z,0.38
2022-10-10T13:37:29.394Z,0.65
2022-10-10T13:39:56.291Z,0.63
2022-10-10T13:42:36.909Z,0.47
2022-10-10T13:45:27.880Z,0.70
2022-10-10T13:48:02.791Z,0.82
2022-10-10T13:50:29.289Z,0.70
2022-10-10T13:53:26.579Z,0.55
2022-10-10T13:56:02.068Z,0.50
2022-10-10T13:58:31.943Z,0.40
2022-10-10T14:01:01.800Z,0.50
2022-10-10T14:03:31.362Z,0.73
2022-10-10T14:05:57.970Z,0.50
2022-10-10T14:08:32.151Z,0.52
2022-10-10T14:11:05.935Z,0.52
2022-10-10T14:13:37.015Z,0.60
2022-10-10T14:16:30.028Z,0.70
2022-10-10T14:18:56.587Z,0.80
2022-10-10T14:21:25.862Z,0.60
2022-10-10T14:23:52.496Z,0.82
2022-10-10T14:26:20.775Z,0.68
2022-10-10T14:28:48.112Z,0.80
2022-10-10T14:31:15.145Z,0.60
2022-10-10T14:33:41.704Z,0.57
2022-10-10T14:36:08.576Z,0.60
2022-10-10T14:38:35.118Z,0.60
2022-10-10T14:41:02.290Z,0.75
2022-10-10T14:43:29.269Z,0.60
2022-10-10T14:45:55.830Z,0.60
2022-10-10T14:48:22.534Z,0.80
2022-10-10T14:50:51.096Z,0.90
2022-10-10T14:53:18.160Z,0.70
2022-10-10T14:55:45.845Z,0.80
2022-10-10T14:58:21.890Z,0.70
2022-10-10T15:00:52.547Z,0.95
2022-10-10T15:03:19.271Z,0.80
2022-10-10T15:05:47.249Z,0.63
2022-10-10T15:08:15.958Z,0.95
2022-10-10T15:10:43.120Z,0.63
2022-10-10T15:13:13.151Z,0.85
2022-10-10T15:15:40.580Z,0.60
2022-10-10T15:18:25.717Z,0.80
2022-10-10T15:20:54.573Z,1.08
2022-10-10T15:23:21.689Z,0.90
2022-10-10T15:25:48.305Z,0.95
2022-10-10T15:28:14.916Z,0.90
2022-10-10T15:30:45.559Z,1.13
2022-10-10T15:33:12.149Z,0.85
2022-10-10T15:36:03.851Z,0.80
2022-10-10T15:38:25.783Z,0.80
2022-10-10T15:41:00.532Z,0.73
2022-10-10T15:43:28.300Z,0.90
2022-10-10T15:45:56.494Z,1.20
2022-10-10T15:48:23.364Z,0.98
2022-10-10T15:50:51.349Z,0.82
2022-10-10T15:53:18.885Z,0.70
2022-10-10T15:55:46.832Z,1.00
2022-10-10T15:58:16.595Z,1.35
2022-10-10T16:00:46.807Z,1.20
2022-10-10T16:03:13.497Z,1.03
2022-10-10T16:05:42.031Z,1.08
2022-10-10T16:08:12.069Z,1.25
2022-10-10T16:10:43.241Z,0.90
2022-10-10T16:13:10.365Z,1.48
2022-10-10T16:15:36.954Z,1.00
2022-10-10T16:18:03.771Z,0.85
2022-10-10T16:20:30.360Z,0.95
2022-10-10T16:22:56.928Z,0.93
2022-10-10T16:25:23.587Z,1.50
2022-10-10T16:27:50.384Z,1.20
2022-10-10T16:30:17.020Z,1.20
2022-10-10T16:32:43.629Z,1.20
2022-10-10T16:35:11.174Z,1.23
2022-10-10T16:37:38.673Z,1.02
2022-10-10T16:40:06.267Z,1.05
2022-10-10T16:42:33.922Z,0.77
2022-10-10T16:45:00.476Z,1.20
2022-10-10T16:47:27.022Z,1.30
2022-10-10T16:49:53.603Z,1.10
2022-10-10T16:52:20.130Z,1.23
2022-10-10T16:54:51.192Z,1.20
2022-10-10T16:57:20.717Z,0.93
2022-10-10T16:59:47.286Z,0.80
2022-10-10T17:02:13.809Z,1.02
2022-10-10T17:04:40.430Z,0.80
2022-10-10T17:07:07.023Z,0.60
2022-10-10T17:09:33.547Z,0.95
2022-10-10T17:12:00.117Z,0.95
2022-10-10T17:14:26.880Z,0.75
2022-10-10T17:19:40.236Z,0.80
2022-10-10T17:22:06.826Z,1.55
2022-10-10T17:24:33.508Z,1.60
2022-10-10T17:27:00.035Z,1.23
2022-10-10T17:29:26.572Z,1.30
2022-10-10T17:31:53.242Z,1.85
2022-10-10T17:34:19.851Z,1.65
2022-10-10T17:36:46.424Z,1.85
2022-10-10T17:39:12.975Z,1.40
2022-10-10T17:41:39.671Z,1.00
2022-10-10T17:44:10.290Z,1.42
2022-10-10T17:46:37.412Z,1.98
2022-10-10T17:49:06.986Z,1.25
2022-10-10T17:51:34.771Z,1.20
2022-10-10T17:54:06.373Z,1.20
2022-10-10T17:56:33.425Z,1.00
2022-10-10T17:59:01.601Z,1.38
2022-10-10T18:01:30.630Z,1.38
2022-10-10T18:03:57.868Z,1.40
2022-10-10T18:06:25.050Z,2.38
2022-10-10T18:08:53.252Z,1.58
2022-10-10T18:11:23.267Z,1.63
2022-10-10T18:13:50.871Z,1.73
2022-10-10T18:16:22.522Z,1.40
2022-10-10T18:18:51.967Z,0.93
2022-10-10T18:21:21.617Z,1.45
2022-10-10T18:23:48.986Z,1.67
2022-10-10T18:26:24.255Z,1.52
2022-10-10T18:28:53.624Z,2.25
2022-10-10T18:31:26.609Z,1.70
2022-10-10T18:33:53.590Z,2.10
2022-10-10T18:36:23.915Z,1.67
2022-10-10T18:38:50.562Z,1.92
2022-10-10T18:41:19.951Z,1.77
2022-10-10T18:43:47.568Z,2.63
2022-10-10T18:46:17.399Z,2.25
2022-10-10T18:48:44.575Z,2.75
2022-10-10T18:51:24.011Z,2.17
2022-10-10T18:53:52.276Z,2.28
2022-10-10T18:56:24.218Z,2.17
2022-10-10T18:58:56.286Z,2.17
2022-10-10T19:01:25.050Z,1.70
2022-10-10T19:03:53.104Z,1.65
2022-10-10T19:06:20.321Z,1.55
2022-10-10T19:08:46.889Z,1.88
2022-10-10T19:11:25.685Z,2.28
2022-10-10T19:13:52.510Z,1.45
2022-10-10T19:16:19.467Z,1.60
2022-10-10T19:18:46.409Z,2.10
2022-10-10T19:21:13.255Z,1.60
2022-10-10T19:23:40.152Z,1.67
2022-10-10T19:26:09.179Z,1.65
2022-10-10T19:28:37.020Z,1.90
2022-10-10T19:31:06.716Z,1.58
2022-10-10T19:33:33.530Z,1.42
2022-10-10T19:36:02.191Z,2.28
2022-10-10T19:38:29.643Z,1.58
2022-10-10T19:40:56.622Z,1.60
2022-10-10T19:43:24.032Z,1.73
2022-10-10T19:45:53.901Z,1.35
2022-10-10T19:48:23.388Z,1.40
2022-10-10T19:50:49.953Z,1.42
2022-10-10T19:53:18.014Z,1.88
2022-10-10T19:55:55.995Z,1.05
2022-10-10T19:58:22.603Z,1.13
2022-10-10T20:00:49.161Z,1.35
2022-10-10T20:03:15.783Z,1.38
2022-10-10T20:05:42.338Z,1.17
2022-10-10T20:08:08.897Z,1.20
2022-10-10T20:10:35.589Z,1.35
2022-10-10T20:13:02.187Z,1.70
2022-10-10T20:15:28.740Z,1.42
2022-10-10T20:17:55.330Z,1.48
2022-10-10T20:20:21.861Z,1.65
2022-10-10T20:22:48.480Z,1.60
2022-10-10T20:25:15.013Z,1.33
2022-10-10T20:27:41.575Z,2.35
2022-10-10T20:30:08.518Z,1.90
2022-10-10T20:32:35.090Z,2.13
2022-10-10T20:35:02.416Z,1.98
2022-10-10T20:37:28.986Z,2.00
2022-10-10T20:39:55.639Z,2.55
2022-10-10T20:42:22.179Z,2.05
2022-10-10T20:44:49.529Z,1.95
2022-10-10T20:47:16.093Z,1.65
2022-10-10T20:49:42.626Z,1.58
2022-10-10T20:52:09.191Z,1.60
2022-10-10T20:54:36.514Z,1.60
2022-10-10T20:57:03.179Z,1.77
2022-10-10T20:59:29.857Z,2.63
2022-10-10T21:01:56.468Z,2.40
2022-10-10T21:04:23.112Z,2.17
2022-10-10T21:06:49.672Z,1.65
2022-10-10T21:09:16.240Z,1.50
2022-10-10T21:11:44.101Z,2.15
2022-10-10T21:14:13.177Z,2.10
2022-10-10T21:16:40.886Z,2.10
2022-10-10T21:19:12.442Z,1.92
2022-10-10T21:24:07.957Z,1.88
2022-10-10T21:26:34.683Z,2.90
2022-10-10T21:29:01.275Z,2.80
2022-10-10T21:31:30.565Z,2.75
2022-10-10T21:33:57.249Z,2.00
2022-10-10T21:36:25.240Z,1.73
2022-10-10T21:38:51.894Z,1.70
2022-10-10T21:41:20.418Z,1.75
2022-10-10T21:43:49.999Z,1.38
2022-10-10T21:46:19.805Z,1.52
2022-10-10T21:48:46.382Z,1.52
2022-10-10T21:51:15.585Z,1.40
2022-10-10T21:53:43.571Z,1.70
2022-10-10T21:56:11.410Z,2.00
2022-10-10T21:58:41.074Z,1.75
2022-10-10T22:01:14.923Z,2.03
2022-10-10T22:03:42.602Z,1.38
2022-10-10T22:06:12.303Z,1.50
2022-10-10T22:08:40.047Z,1.60
2022-10-10T22:11:09.846Z,1.65
2022-10-10T22:13:36.641Z,2.00
2022-10-10T22:16:04.338Z,1.70
2022-10-10T22:18:31.817Z,1.25
2022-10-10T22:21:01.461Z,1.25
2022-10-10T22:23:28.023Z,1.08
2022-10-10T22:25:54.571Z,2.00
2022-10-10T22:28:21.253Z,1.10
2022-10-10T22:30:47.867Z,1.40
2022-10-10T22:33:14.496Z,1.48
2022-10-10T22:35:41.201Z,1.52
2022-10-10T22:38:07.899Z,1.80
2022-10-10T22:40:34.650Z,1.88
2022-10-10T22:43:01.632Z,1.95
2022-10-10T22:45:29.284Z,1.20
2022-10-10T22:47:55.902Z,1.42
2022-10-10T22:50:25.256Z,1.27
2022-10-10T22:52:51.811Z,1.27
2022-10-10T22:55:18.996Z,1.55
2022-10-10T22:57:46.197Z,1.80
2022-10-10T23:00:13.831Z,1.60
2022-10-10T23:02:40.401Z,1.50
2022-10-10T23:05:07.545Z,1.55
2022-10-10T23:07:34.309Z,1.58
2022-10-10T23:10:00.893Z,1.17
2022-10-10T23:12:27.466Z,1.20
2022-10-10T23:14:54.013Z,1.70
2022-10-10T23:17:20.588Z,1.48
2022-10-10T23:19:47.111Z,1.52
2022-10-10T23:22:13.772Z,1.17
2022-10-10T23:24:40.588Z,1.10
2022-10-10T23:27:07.483Z,1.15
2022-10-10T23:29:34.341Z,1.35
2022-10-10T23:32:00.889Z,1.10
2022-10-10T23:34:27.503Z,1.00
2022-10-10T23:36:54.094Z,1.30
2022-10-10T23:39:20.753Z,0.82
2022-10-10T23:41:47.365Z,1.30
2022-10-10T23:44:13.930Z,1.23
2022-10-10T23:46:40.537Z,1.45
2022-10-10T23:49:07.077Z,1.33
2022-10-10T23:51:33.739Z,1.50
2022-10-10T23:54:00.307Z,1.23
2022-10-10T23:56:26.858Z,1.63
2022-10-10T23:58:53.453Z,1.30
